createdAt,value
2017-08-01T00:00:33.348Z,0
2017-08-01T00:01:33.967Z,0
2017-08-01T00:02:33.333Z,0
2017-08-01T00:03:33.946Z,0
2017-08-01T00:04:33.316Z,0
2017-08-01T00:05:33.625Z,0
2017-08-01T00:06:33.916Z,0
2017-08-01T00:07:33.919Z,0
2017-08-01T00:08:34.214Z,0
2017-08-01T00:09:33.898Z,0
2017-08-01T00:10:34.202Z,0
2017-08-01T00:11:33.882Z,0
2017-08-01T00:12:33.561Z,0
2017-08-01T00:13:34.169Z,0
2017-08-01T00:14:33.852Z,0
2017-08-01T00:15:34.164Z,0
2017-08-01T00:16:33.832Z,0
2017-08-01T00:17:33.519Z,0
2017-08-01T00:18:34.134Z,0
2017-08-01T00:19:33.813Z,0
2017-08-01T00:20:33.798Z,0
2017-08-01T00:21:34.101Z,0
2017-08-01T00:22:33.465Z,0
2017-08-01T00:23:33.511Z,0
2017-08-01T00:24:33.780Z,0
2017-08-01T00:25:33.444Z,0
2017-08-01T00:26:34.060Z,0
2017-08-01T00:27:33.744Z,0
2017-08-01T00:28:34.056Z,0
2017-08-01T00:29:33.722Z,0
2017-08-01T00:30:34.028Z,0
2017-08-01T00:31:33.710Z,0
2017-08-01T00:32:33.692Z,0
2017-08-01T00:33:33.373Z,0
2017-08-01T00:34:33.052Z,0
2017-08-01T00:35:33.383Z,0
2017-08-01T00:36:33.656Z,0
2017-08-01T00:37:33.957Z,0
2017-08-01T00:38:33.641Z,0
2017-08-01T00:39:33.628Z,0
2017-08-01T00:40:33.619Z,0
2017-08-01T00:41:33.610Z,0
2017-08-01T00:42:32.977Z,0
2017-08-01T00:43:33.604Z,0
2017-08-01T00:44:32.960Z,0
2017-08-01T00:45:33.577Z,0
2017-08-01T00:46:33.590Z,0
2017-08-01T00:47:33.867Z,0
2017-08-01T00:48:33.619Z,0
2017-08-01T00:49:33.534Z,0
2017-08-01T00:50:33.880Z,0
2017-08-01T00:51:33.213Z,0
2017-08-01T00:52:33.511Z,0
2017-08-01T00:53:33.501Z,0
2017-08-01T00:54:33.493Z,0
2017-08-01T00:55:33.820Z,0
2017-08-01T00:56:33.155Z,0
2017-08-01T00:57:33.468Z,0
2017-08-01T00:58:33.769Z,0
2017-08-01T00:59:33.445Z,0
2017-08-01T01:00:33.748Z,0
2017-08-01T01:01:33.114Z,0
2017-08-01T01:02:33.414Z,0
2017-08-01T01:03:33.406Z,0
2017-08-01T01:04:33.714Z,0
2017-08-01T01:05:33.079Z,0
2017-08-01T01:06:33.066Z,0
2017-08-01T01:07:33.376Z,0
2017-08-01T01:08:33.682Z,0
2017-08-01T01:09:33.374Z,0
2017-08-01T01:10:33.356Z,0
2017-08-01T01:11:33.340Z,0
2017-08-01T01:12:33.332Z,0
2017-08-01T01:13:33.316Z,0
2017-08-01T01:14:33.623Z,0
2017-08-01T01:15:33.301Z,0
2017-08-01T01:16:33.606Z,0
2017-08-01T01:17:33.278Z,0
2017-08-01T01:18:32.961Z,0
2017-08-01T01:19:32.949Z,0
2017-08-01T01:20:33.256Z,0
2017-08-01T01:21:33.247Z,0
2017-08-01T01:22:33.440Z,0
2017-08-01T01:23:33.231Z,0
2017-08-01T01:24:33.215Z,0
2017-08-01T01:25:33.220Z,0
2017-08-01T01:26:32.882Z,0
2017-08-01T01:27:32.886Z,0
2017-08-01T01:28:33.493Z,0
2017-08-01T01:29:33.173Z,0
2017-08-01T01:30:33.161Z,0
2017-08-01T01:31:33.158Z,0
2017-08-01T01:32:33.149Z,0
2017-08-01T01:33:33.186Z,0
2017-08-01T01:34:33.140Z,0
2017-08-01T01:35:33.426Z,0
2017-08-01T01:36:32.796Z,0
2017-08-01T01:37:32.782Z,0
2017-08-01T01:38:33.421Z,0
2017-08-01T01:39:33.078Z,0
2017-08-01T01:40:33.376Z,0
2017-08-01T01:41:32.754Z,0
2017-08-01T01:42:33.365Z,0
2017-08-01T01:43:32.412Z,0
2017-08-01T01:44:33.339Z,0
2017-08-01T01:45:32.704Z,0
2017-08-01T01:46:32.702Z,0
2017-08-01T01:47:33.000Z,0
2017-08-01T01:48:33.309Z,0
2017-08-01T01:49:32.983Z,0
2017-08-01T01:50:33.300Z,0
2017-08-01T01:51:32.959Z,0
2017-08-01T01:52:33.266Z,0
2017-08-01T01:53:32.956Z,0
2017-08-01T01:54:32.940Z,0
2017-08-01T01:55:32.929Z,0
2017-08-01T01:56:32.598Z,0
2017-08-01T01:57:32.909Z,0
2017-08-01T01:58:32.895Z,0
2017-08-01T01:59:33.204Z,0
2017-08-01T02:00:33.193Z,0
2017-08-01T02:01:32.243Z,0
2017-08-01T02:02:32.858Z,0
2017-08-01T02:03:32.528Z,0
2017-08-01T02:04:33.146Z,0
2017-08-01T02:05:32.512Z,0
2017-08-01T02:06:32.510Z,0
2017-08-01T02:07:32.809Z,0
2017-08-01T02:08:32.490Z,0
2017-08-01T02:09:32.793Z,0
2017-08-01T02:10:32.155Z,0
2017-08-01T02:11:32.161Z,0
2017-08-01T02:12:32.135Z,0
2017-08-01T02:13:32.750Z,0
2017-08-01T02:14:32.735Z,0
2017-08-01T02:15:32.738Z,0
2017-08-01T02:16:32.719Z,0
2017-08-01T02:17:33.035Z,0
2017-08-01T02:18:32.083Z,0
2017-08-01T02:19:32.712Z,0
2017-08-01T02:20:32.680Z,0
2017-08-01T02:21:32.983Z,0
2017-08-01T02:22:32.976Z,0
2017-08-01T02:23:32.649Z,0
2017-08-01T02:24:32.954Z,0
2017-08-01T02:25:32.324Z,0
2017-08-01T02:26:32.317Z,0
2017-08-01T02:27:32.616Z,0
2017-08-01T02:28:32.604Z,0
2017-08-01T02:29:32.283Z,0
2017-08-01T02:30:32.938Z,0
2017-08-01T02:31:32.580Z,0
2017-08-01T02:32:32.570Z,0
2017-08-01T02:33:32.556Z,0
2017-08-01T02:34:32.545Z,0
2017-08-01T02:35:32.540Z,0
2017-08-01T02:36:32.536Z,0
2017-08-01T02:37:32.861Z,0
2017-08-01T02:38:32.849Z,0
2017-08-01T02:39:32.824Z,0
2017-08-01T02:40:31.870Z,0
2017-08-01T02:41:32.488Z,0
2017-08-01T02:42:32.163Z,0
2017-08-01T02:43:32.468Z,0
2017-08-01T02:44:32.770Z,0
2017-08-01T02:45:32.745Z,0
2017-08-01T02:46:32.426Z,0
2017-08-01T02:47:32.728Z,0
2017-08-01T02:48:32.414Z,0
2017-08-01T02:49:32.764Z,0
2017-08-01T02:50:32.389Z,0
2017-08-01T02:51:32.689Z,0
2017-08-01T02:52:32.682Z,0
2017-08-01T02:53:32.373Z,0
2017-08-01T02:54:32.345Z,0
2017-08-01T02:55:32.336Z,0
2017-08-01T02:56:32.650Z,0
2017-08-01T02:57:31.997Z,0
2017-08-01T02:58:32.302Z,0
2017-08-01T02:59:31.978Z,0
2017-08-01T03:00:32.594Z,0
2017-08-01T03:01:32.597Z,0
2017-08-01T03:02:32.269Z,0
2017-08-01T03:03:32.252Z,0
2017-08-01T03:04:31.934Z,0
2017-08-01T03:05:31.916Z,0
2017-08-01T03:06:32.536Z,0
2017-08-01T03:07:31.893Z,0
2017-08-01T03:08:32.513Z,0
2017-08-01T03:09:32.196Z,0
2017-08-01T03:10:32.183Z,0
2017-08-01T03:11:32.175Z,0
2017-08-01T03:12:31.531Z,0
2017-08-01T03:13:31.837Z,0
2017-08-01T03:14:32.142Z,0
2017-08-01T03:15:31.835Z,0
2017-08-01T03:16:31.809Z,0
2017-08-01T03:17:31.806Z,0
2017-08-01T03:18:32.413Z,0
2017-08-01T03:19:31.780Z,0
2017-08-01T03:20:32.079Z,0
2017-08-01T03:21:31.754Z,0
2017-08-01T03:22:32.265Z,0
2017-08-01T03:23:32.056Z,4
2017-08-01T03:24:32.046Z,4
2017-08-01T03:25:32.333Z,4
2017-08-01T03:26:32.024Z,4
2017-08-01T03:27:31.693Z,4
2017-08-01T03:28:32.308Z,4
2017-08-01T03:29:31.981Z,4
2017-08-01T03:30:32.002Z,4
2017-08-01T03:31:32.273Z,8
2017-08-01T03:32:31.962Z,8
2017-08-01T03:33:31.634Z,8
2017-08-01T03:34:31.620Z,12
2017-08-01T03:35:32.235Z,12
2017-08-01T03:36:32.224Z,12
2017-08-01T03:37:31.913Z,16
2017-08-01T03:38:31.893Z,16
2017-08-01T03:39:31.878Z,20
2017-08-01T03:40:32.179Z,20
2017-08-01T03:41:31.327Z,24
2017-08-01T03:42:31.536Z,28
2017-08-01T03:43:31.523Z,32
2017-08-01T03:44:31.520Z,36
2017-08-01T03:45:31.505Z,40
2017-08-01T03:46:31.498Z,40
2017-08-01T03:47:31.481Z,44
2017-08-01T03:48:31.474Z,44
2017-08-01T03:49:31.467Z,48
2017-08-01T03:50:31.764Z,56
2017-08-01T03:51:31.437Z,60
2017-08-01T03:52:32.078Z,64
2017-08-01T03:53:32.046Z,68
2017-08-01T03:54:31.736Z,72
2017-08-01T03:55:31.714Z,80
2017-08-01T03:56:31.386Z,88
2017-08-01T03:57:32.003Z,96
2017-08-01T03:58:31.987Z,104
2017-08-01T03:59:31.358Z,124
2017-08-01T04:00:31.656Z,144
2017-08-01T04:01:31.333Z,156
2017-08-01T04:02:31.637Z,164
2017-08-01T04:03:31.310Z,168
2017-08-01T04:04:31.932Z,176
2017-08-01T04:05:31.602Z,184
2017-08-01T04:06:31.591Z,196
2017-08-01T04:07:31.588Z,212
2017-08-01T04:08:30.949Z,228
2017-08-01T04:09:31.880Z,252
2017-08-01T04:10:31.769Z,276
2017-08-01T04:11:31.540Z,304
2017-08-01T04:12:30.914Z,336
2017-08-01T04:13:31.515Z,368
2017-08-01T04:14:31.201Z,392
2017-08-01T04:15:31.506Z,416
2017-08-01T04:16:31.801Z,440
2017-08-01T04:17:31.484Z,452
2017-08-01T04:18:31.471Z,472
2017-08-01T04:19:31.460Z,484
2017-08-01T04:20:31.655Z,516
2017-08-01T04:21:31.746Z,544
2017-08-01T04:22:31.115Z,600
2017-08-01T04:23:31.413Z,664
2017-08-01T04:24:31.718Z,744
2017-08-01T04:25:31.439Z,808
2017-08-01T04:26:31.064Z,888
2017-08-01T04:27:31.370Z,984
2017-08-01T04:28:31.364Z,1084
2017-08-01T04:29:31.668Z,1212
2017-08-01T04:30:31.367Z,1332
2017-08-01T04:31:31.016Z,1444
2017-08-01T04:32:31.318Z,1512
2017-08-01T04:33:30.992Z,1564
2017-08-01T04:34:31.295Z,1612
2017-08-01T04:35:30.975Z,1632
2017-08-01T04:36:31.593Z,1632
2017-08-01T04:37:30.643Z,1604
2017-08-01T04:38:31.572Z,1596
2017-08-01T04:39:31.303Z,1652
2017-08-01T04:40:31.613Z,1720
2017-08-01T04:41:31.535Z,1772
2017-08-01T04:42:31.211Z,1824
2017-08-01T04:43:31.202Z,1860
2017-08-01T04:44:31.500Z,1888
2017-08-01T04:45:31.498Z,1884
2017-08-01T04:46:31.178Z,1840
2017-08-01T04:47:31.163Z,1796
2017-08-01T04:48:31.463Z,1776
2017-08-01T04:49:30.824Z,1780
2017-08-01T04:50:31.443Z,1764
2017-08-01T04:51:30.488Z,1712
2017-08-01T04:52:30.490Z,1656
2017-08-01T04:53:31.097Z,1612
2017-08-01T04:54:31.089Z,1600
2017-08-01T04:55:30.765Z,1604
2017-08-01T04:56:31.074Z,1600
2017-08-01T04:57:31.057Z,1588
2017-08-01T04:58:30.734Z,1604
2017-08-01T04:59:31.034Z,1620
2017-08-01T05:00:30.410Z,1624
2017-08-01T05:01:31.018Z,1664
2017-08-01T05:02:31.038Z,1688
2017-08-01T05:03:31.001Z,1704
2017-08-01T05:04:30.986Z,1708
2017-08-01T05:05:31.286Z,1724
2017-08-01T05:06:30.969Z,1752
2017-08-01T05:07:30.954Z,1800
2017-08-01T05:08:31.253Z,1872
2017-08-01T05:09:30.618Z,1960
2017-08-01T05:10:31.252Z,2032
2017-08-01T05:11:30.964Z,2060
2017-08-01T05:12:30.589Z,2100
2017-08-01T05:13:31.207Z,2124
2017-08-01T05:14:30.882Z,2116
2017-08-01T05:15:30.873Z,2100
2017-08-01T05:16:31.174Z,2036
2017-08-01T05:17:31.163Z,1984
2017-08-01T05:18:30.847Z,1944
2017-08-01T05:19:30.839Z,1888
2017-08-01T05:20:30.824Z,1816
2017-08-01T05:21:31.127Z,1744
2017-08-01T05:22:31.515Z,1688
2017-08-01T05:23:30.478Z,1620
2017-08-01T05:24:30.783Z,1596
2017-08-01T05:25:30.464Z,1608
2017-08-01T05:26:30.758Z,1632
2017-08-01T05:27:31.061Z,1672
2017-08-01T05:28:30.430Z,1696
2017-08-01T05:29:30.772Z,1692
2017-08-01T05:30:30.410Z,1652
2017-08-01T05:31:30.711Z,1600
2017-08-01T05:32:30.704Z,1564
2017-08-01T05:33:31.000Z,1564
2017-08-01T05:34:30.676Z,1588
2017-08-01T05:35:30.672Z,1624
2017-08-01T05:36:30.976Z,1644
2017-08-01T05:37:30.343Z,1676
2017-08-01T05:38:30.334Z,1696
2017-08-01T05:39:30.631Z,1732
2017-08-01T05:40:30.622Z,1768
2017-08-01T05:41:30.927Z,1824
2017-08-01T05:42:30.916Z,1848
2017-08-01T05:43:30.586Z,1892
2017-08-01T05:44:30.585Z,1904
2017-08-01T05:45:30.255Z,1904
2017-08-01T05:46:30.615Z,1928
2017-08-01T05:47:30.891Z,1932
2017-08-01T05:48:30.854Z,1932
2017-08-01T05:49:30.526Z,1936
2017-08-01T05:50:30.831Z,1912
2017-08-01T05:51:30.196Z,1860
2017-08-01T05:52:30.499Z,1776
2017-08-01T05:53:30.181Z,1732
2017-08-01T05:54:30.477Z,1728
2017-08-01T05:55:30.158Z,1704
2017-08-01T05:56:30.767Z,1616
2017-08-01T05:57:30.760Z,1600
2017-08-01T05:58:30.758Z,1620
2017-08-01T05:59:30.123Z,1588
2017-08-01T06:00:30.109Z,1620
2017-08-01T06:01:30.107Z,1644
2017-08-01T06:02:30.719Z,1672
2017-08-01T06:03:30.396Z,1704
2017-08-01T06:04:30.377Z,1752
2017-08-01T06:05:30.715Z,1708
2017-08-01T06:06:30.368Z,1608
2017-08-01T06:07:30.354Z,1688
2017-08-01T06:08:30.343Z,1732
2017-08-01T06:09:30.324Z,1668
2017-08-01T06:10:30.357Z,1624
2017-08-01T06:11:30.313Z,1776
2017-08-01T06:12:30.304Z,1796
2017-08-01T06:13:30.638Z,1788
2017-08-01T06:14:30.282Z,1972
2017-08-01T06:15:30.270Z,2240
2017-08-01T06:16:30.262Z,2380
2017-08-01T06:17:29.630Z,2476
2017-08-01T06:18:29.934Z,2508
2017-08-01T06:19:30.228Z,2436
2017-08-01T06:20:30.220Z,2308
2017-08-01T06:21:29.913Z,2424
2017-08-01T06:22:29.900Z,2480
2017-08-01T06:23:30.508Z,2424
2017-08-01T06:24:30.181Z,2552
2017-08-01T06:25:29.865Z,2832
2017-08-01T06:26:30.168Z,3032
2017-08-01T06:27:29.837Z,3476
2017-08-01T06:28:29.831Z,3796
2017-08-01T06:29:30.128Z,3780
2017-08-01T06:30:29.811Z,3936
2017-08-01T06:31:30.441Z,4048
2017-08-01T06:32:29.805Z,4208
2017-08-01T06:33:29.795Z,4364
2017-08-01T06:34:30.398Z,4272
2017-08-01T06:35:30.389Z,4228
2017-08-01T06:36:29.756Z,4032
2017-08-01T06:37:29.739Z,4080
2017-08-01T06:38:29.431Z,4216
2017-08-01T06:39:30.354Z,4484
2017-08-01T06:40:30.034Z,4452
2017-08-01T06:41:29.727Z,4424
2017-08-01T06:42:29.714Z,4252
2017-08-01T06:43:30.015Z,4176
2017-08-01T06:44:30.316Z,4308
2017-08-01T06:45:30.306Z,4488
2017-08-01T06:46:29.980Z,4676
2017-08-01T06:47:29.966Z,4744
2017-08-01T06:48:30.277Z,4832
2017-08-01T06:49:29.648Z,5136
2017-08-01T06:50:30.251Z,6184
2017-08-01T06:51:29.626Z,6796
2017-08-01T06:52:29.629Z,6948
2017-08-01T06:53:29.913Z,7368
2017-08-01T06:54:29.907Z,7056
2017-08-01T06:55:29.898Z,6576
2017-08-01T06:56:29.905Z,6136
2017-08-01T06:57:29.569Z,6276
2017-08-01T06:58:29.240Z,6528
2017-08-01T06:59:29.550Z,6508
2017-08-01T07:00:29.865Z,6556
2017-08-01T07:01:30.155Z,6752
2017-08-01T07:02:29.519Z,6900
2017-08-01T07:03:30.134Z,6900
2017-08-01T07:04:30.153Z,6944
2017-08-01T07:05:29.524Z,6972
2017-08-01T07:06:29.485Z,6636
2017-08-01T07:07:30.114Z,6388
2017-08-01T07:08:30.098Z,6192
2017-08-01T07:09:29.797Z,6036
2017-08-01T07:10:29.460Z,5848
2017-08-01T07:11:29.443Z,5724
2017-08-01T07:12:30.063Z,5836
2017-08-01T07:13:30.058Z,6232
2017-08-01T07:14:30.042Z,6744
2017-08-01T07:15:29.729Z,7376
2017-08-01T07:16:30.049Z,7836
2017-08-01T07:17:29.396Z,7692
2017-08-01T07:18:30.052Z,7044
2017-08-01T07:19:29.695Z,6844
2017-08-01T07:20:30.006Z,6652
2017-08-01T07:21:29.996Z,6604
2017-08-01T07:22:29.713Z,6504
2017-08-01T07:23:29.665Z,6452
2017-08-01T07:24:29.653Z,6496
2017-08-01T07:25:29.858Z,6732
2017-08-01T07:26:29.642Z,7032
2017-08-01T07:27:29.627Z,7284
2017-08-01T07:28:29.361Z,7428
2017-08-01T07:29:29.620Z,7600
2017-08-01T07:30:29.612Z,7996
2017-08-01T07:31:29.918Z,8216
2017-08-01T07:32:29.618Z,8348
2017-08-01T07:33:29.898Z,8276
2017-08-01T07:34:28.951Z,8096
2017-08-01T07:35:29.572Z,8428
2017-08-01T07:36:29.878Z,8956
2017-08-01T07:37:29.246Z,18752
2017-08-01T07:38:29.548Z,23136
2017-08-01T07:39:29.542Z,22912
2017-08-01T07:40:29.535Z,7632
2017-08-01T07:41:29.524Z,14004
2017-08-01T07:42:28.941Z,9388
2017-08-01T07:43:29.199Z,9060
2017-08-01T07:44:29.512Z,11620
2017-08-01T07:45:29.810Z,11656
2017-08-01T07:46:29.518Z,12256
2017-08-01T07:47:29.546Z,9900
2017-08-01T07:48:29.790Z,9864
2017-08-01T07:49:29.487Z,11680
2017-08-01T07:50:29.791Z,9188
2017-08-01T07:51:29.780Z,7940
2017-08-01T07:52:29.457Z,7460
2017-08-01T07:53:29.446Z,7436
2017-08-01T07:54:29.132Z,7288
2017-08-01T07:55:29.438Z,7204
2017-08-01T07:56:29.742Z,7260
2017-08-01T07:57:29.108Z,7332
2017-08-01T07:58:29.412Z,7296
2017-08-01T07:59:29.418Z,7308
2017-08-01T08:00:29.089Z,7408
2017-08-01T08:01:29.418Z,7420
2017-08-01T08:02:29.703Z,7360
2017-08-01T08:03:29.753Z,7232
2017-08-01T08:04:29.376Z,7152
2017-08-01T08:05:29.367Z,6980
2017-08-01T08:06:29.048Z,6880
2017-08-01T08:07:29.669Z,6984
2017-08-01T08:08:29.417Z,7152
2017-08-01T08:09:29.045Z,7416
2017-08-01T08:10:28.714Z,7728
2017-08-01T08:11:29.642Z,7972
2017-08-01T08:12:29.354Z,8176
2017-08-01T08:13:29.014Z,8360
2017-08-01T08:14:29.618Z,8368
2017-08-01T08:15:28.997Z,8304
2017-08-01T08:16:29.294Z,8056
2017-08-01T08:17:29.285Z,7960
2017-08-01T08:18:28.966Z,7988
2017-08-01T08:19:29.277Z,7996
2017-08-01T08:20:29.598Z,7928
2017-08-01T08:21:29.571Z,8088
2017-08-01T08:22:29.273Z,8184
2017-08-01T08:23:29.565Z,8268
2017-08-01T08:24:29.244Z,8344
2017-08-01T08:25:29.128Z,8388
2017-08-01T08:26:29.241Z,8508
2017-08-01T08:27:28.908Z,8536
2017-08-01T08:28:29.529Z,8592
2017-08-01T08:29:28.897Z,8728
2017-08-01T08:30:28.896Z,9052
2017-08-01T08:31:29.204Z,9436
2017-08-01T08:32:29.195Z,9592
2017-08-01T08:33:29.233Z,9740
2017-08-01T08:34:29.486Z,9668
2017-08-01T08:35:29.481Z,9448
2017-08-01T08:36:28.849Z,9112
2017-08-01T08:37:29.180Z,8820
2017-08-01T08:38:29.158Z,8624
2017-08-01T08:39:29.459Z,8496
2017-08-01T08:40:29.452Z,8472
2017-08-01T08:41:29.132Z,8616
2017-08-01T08:42:29.120Z,8892
2017-08-01T08:43:29.448Z,9160
2017-08-01T08:44:28.800Z,9388
2017-08-01T08:45:28.793Z,9596
2017-08-01T08:46:29.097Z,9796
2017-08-01T08:47:29.096Z,10060
2017-08-01T08:48:29.084Z,10384
2017-08-01T08:49:29.398Z,10796
2017-08-01T08:50:29.390Z,11032
2017-08-01T08:51:29.070Z,11108
2017-08-01T08:52:28.430Z,10992
2017-08-01T08:53:29.368Z,10752
2017-08-01T08:54:28.734Z,10524
2017-08-01T08:55:29.358Z,10508
2017-08-01T08:56:29.035Z,10464
2017-08-01T08:57:29.024Z,10608
2017-08-01T08:58:29.340Z,10608
2017-08-01T08:59:28.711Z,10476
2017-08-01T09:00:29.356Z,10188
2017-08-01T09:01:29.005Z,9184
2017-08-01T09:02:28.992Z,7416
2017-08-01T09:03:28.363Z,5880
2017-08-01T09:04:28.982Z,5524
2017-08-01T09:05:28.984Z,5968
2017-08-01T09:06:29.293Z,6140
2017-08-01T09:07:28.972Z,5896
2017-08-01T09:08:28.963Z,5848
2017-08-01T09:09:28.953Z,4716
2017-08-01T09:10:28.954Z,4356
2017-08-01T09:11:29.262Z,4376
2017-08-01T09:12:28.950Z,3748
2017-08-01T09:13:28.616Z,3356
2017-08-01T09:14:28.920Z,3548
2017-08-01T09:15:28.603Z,4152
2017-08-01T09:16:28.910Z,4784
2017-08-01T09:17:28.939Z,5468
2017-08-01T09:18:28.900Z,5804
2017-08-01T09:19:29.200Z,6132
2017-08-01T09:20:28.883Z,6380
2017-08-01T09:21:28.247Z,6452
2017-08-01T09:22:28.560Z,6228
2017-08-01T09:23:29.061Z,5924
2017-08-01T09:24:28.850Z,5596
2017-08-01T09:25:28.537Z,5312
2017-08-01T09:26:28.844Z,5020
2017-08-01T09:27:28.522Z,4804
2017-08-01T09:28:29.135Z,4652
2017-08-01T09:29:29.150Z,4580
2017-08-01T09:30:28.512Z,4700
2017-08-01T09:31:28.497Z,4976
2017-08-01T09:32:29.120Z,5136
2017-08-01T09:33:29.116Z,5244
2017-08-01T09:34:29.123Z,5604
2017-08-01T09:35:28.792Z,6000
2017-08-01T09:36:28.794Z,6312
2017-08-01T09:37:28.470Z,6744
2017-08-01T09:38:28.450Z,7232
2017-08-01T09:39:29.082Z,7556
2017-08-01T09:40:28.442Z,7504
2017-08-01T09:41:29.051Z,7416
2017-08-01T09:42:28.116Z,7248
2017-08-01T09:43:28.729Z,6856
2017-08-01T09:44:28.951Z,6476
2017-08-01T09:45:28.400Z,6160
2017-08-01T09:46:28.714Z,6056
2017-08-01T09:47:29.014Z,6312
2017-08-01T09:48:28.693Z,6752
2017-08-01T09:49:28.736Z,7232
2017-08-01T09:50:28.365Z,7800
2017-08-01T09:51:28.680Z,8464
2017-08-01T09:52:28.366Z,9232
2017-08-01T09:53:28.041Z,10124
2017-08-01T09:54:29.022Z,10936
2017-08-01T09:55:28.959Z,11340
2017-08-01T09:56:28.647Z,11244
2017-08-01T09:57:28.324Z,10800
2017-08-01T09:58:28.634Z,10088
2017-08-01T09:59:28.930Z,9944
2017-08-01T10:00:28.615Z,10240
2017-08-01T10:01:28.300Z,10424
2017-08-01T10:02:28.602Z,10032
2017-08-01T10:03:28.620Z,9164
2017-08-01T10:04:28.276Z,8516
2017-08-01T10:05:28.902Z,8456
2017-08-01T10:06:28.926Z,8572
2017-08-01T10:07:28.571Z,8484
2017-08-01T10:08:28.254Z,7660
2017-08-01T10:09:28.868Z,6284
2017-08-01T10:10:28.866Z,5464
2017-08-01T10:11:28.254Z,5380
2017-08-01T10:12:28.861Z,5400
2017-08-01T10:13:28.531Z,5596
2017-08-01T10:14:28.572Z,6892
2017-08-01T10:15:28.208Z,9392
2017-08-01T10:16:28.520Z,12068
2017-08-01T10:17:28.847Z,12212
2017-08-01T10:18:28.499Z,13912
2017-08-01T10:19:28.804Z,21952
2017-08-01T10:20:28.505Z,21536
2017-08-01T10:21:28.496Z,26048
2017-08-01T10:22:28.803Z,32128
2017-08-01T10:23:27.858Z,20192
2017-08-01T10:24:28.477Z,24640
2017-08-01T10:25:28.464Z,17376
2017-08-01T10:26:28.777Z,18560
2017-08-01T10:27:28.445Z,26656
2017-08-01T10:28:28.181Z,23424
2017-08-01T10:29:28.445Z,19328
2017-08-01T10:30:28.437Z,18304
2017-08-01T10:31:27.807Z,23104
2017-08-01T10:32:28.437Z,26880
2017-08-01T10:33:28.475Z,86944
2017-08-01T10:34:28.417Z,83232
2017-08-01T10:35:28.420Z,79264
2017-08-01T10:36:28.411Z,77664
2017-08-01T10:37:28.406Z,71008
2017-08-01T10:38:28.094Z,66784
2017-08-01T10:39:28.725Z,77952
2017-08-01T10:40:28.090Z,80544
2017-08-01T10:41:28.089Z,74880
2017-08-01T10:42:28.398Z,36448
2017-08-01T10:43:28.083Z,21856
2017-08-01T10:44:28.400Z,24224
2017-08-01T10:45:28.713Z,17696
2017-08-01T10:46:28.403Z,12616
2017-08-01T10:47:27.763Z,10136
2017-08-01T10:48:28.699Z,8288
2017-08-01T10:49:28.388Z,6896
2017-08-01T10:50:28.075Z,5816
2017-08-01T10:51:28.389Z,5328
2017-08-01T10:52:28.693Z,5724
2017-08-01T10:53:28.067Z,5464
2017-08-01T10:54:28.697Z,4832
2017-08-01T10:55:27.750Z,4340
2017-08-01T10:56:28.693Z,4276
2017-08-01T10:57:28.056Z,4552
2017-08-01T10:58:28.363Z,5096
2017-08-01T10:59:28.363Z,5660
2017-08-01T11:00:28.370Z,5812
2017-08-01T11:01:28.050Z,5704
2017-08-01T11:02:28.040Z,4980
2017-08-01T11:03:28.034Z,4412
2017-08-01T11:04:28.655Z,4744
2017-08-01T11:05:28.337Z,5588
2017-08-01T11:06:28.019Z,6484
2017-08-01T11:07:28.643Z,7472
2017-08-01T11:08:28.335Z,9652
2017-08-01T11:09:28.323Z,12436
2017-08-01T11:10:28.317Z,15692
2017-08-01T11:11:28.331Z,19200
2017-08-01T11:12:28.009Z,28192
2017-08-01T11:13:27.991Z,29696
2017-08-01T11:14:28.307Z,51616
2017-08-01T11:15:28.308Z,77984
2017-08-01T11:16:28.290Z,29312
2017-08-01T11:17:28.289Z,16704
2017-08-01T11:18:28.593Z,37760
2017-08-01T11:19:28.312Z,25792
2017-08-01T11:20:28.331Z,59488
2017-08-01T11:21:28.260Z,25024
2017-08-01T11:22:28.565Z,21984
2017-08-01T11:23:28.465Z,45920
2017-08-01T11:24:28.582Z,41728
2017-08-01T11:25:27.935Z,32864
2017-08-01T11:26:27.941Z,41728
2017-08-01T11:27:28.236Z,36064
2017-08-01T11:28:28.572Z,27328
2017-08-01T11:29:27.614Z,20608
2017-08-01T11:30:28.233Z,20128
2017-08-01T11:31:28.234Z,19424
2017-08-01T11:32:28.548Z,13964
2017-08-01T11:33:28.548Z,16896
2017-08-01T11:34:28.218Z,11064
2017-08-01T11:35:28.522Z,9740
2017-08-01T11:36:28.218Z,11336
2017-08-01T11:37:28.202Z,13780
2017-08-01T11:38:28.529Z,12820
2017-08-01T11:39:28.210Z,10428
2017-08-01T11:40:28.194Z,9516
2017-08-01T11:41:59.953Z,9324
2017-08-01T11:42:28.178Z,9220
2017-08-01T11:43:27.869Z,8728
2017-08-01T11:44:28.180Z,7780
2017-08-01T11:45:27.854Z,6744
2017-08-01T11:46:27.845Z,5664
2017-08-01T11:47:28.158Z,5132
2017-08-01T11:48:27.849Z,5372
2017-08-01T11:49:28.150Z,6528
2017-08-01T11:50:27.830Z,6944
2017-08-01T11:51:28.146Z,6216
2017-08-01T11:52:28.146Z,5296
2017-08-01T11:53:28.130Z,4948
2017-08-01T11:54:28.133Z,4724
2017-08-01T11:55:28.118Z,5072
2017-08-01T11:56:27.802Z,6300
2017-08-01T11:57:28.115Z,6964
2017-08-01T11:58:28.418Z,6420
2017-08-01T11:59:28.405Z,6884
2017-08-01T12:00:27.468Z,7412
2017-08-01T12:01:28.092Z,7136
2017-08-01T12:02:28.086Z,6676
2017-08-01T12:03:28.078Z,6212
2017-08-01T12:04:28.116Z,5676
2017-08-01T12:05:28.405Z,5712
2017-08-01T12:06:28.072Z,5704
2017-08-01T12:07:28.059Z,5324
2017-08-01T12:08:28.049Z,5188
2017-08-01T12:09:27.733Z,5504
2017-08-01T12:10:27.723Z,5796
2017-08-01T12:11:27.461Z,5704
2017-08-01T12:12:28.020Z,6028
2017-08-01T12:13:27.709Z,7020
2017-08-01T12:14:27.704Z,7612
2017-08-01T12:15:28.043Z,7608
2017-08-01T12:16:28.003Z,8392
2017-08-01T12:17:27.997Z,9984
2017-08-01T12:18:28.308Z,12004
2017-08-01T12:19:27.986Z,12668
2017-08-01T12:20:27.673Z,12264
2017-08-01T12:21:27.709Z,11024
2017-08-01T12:22:28.290Z,9464
2017-08-01T12:23:27.958Z,8016
2017-08-01T12:24:28.270Z,6784
2017-08-01T12:25:27.637Z,6184
2017-08-01T12:26:28.294Z,6168
2017-08-01T12:27:27.624Z,6616
2017-08-01T12:28:27.933Z,6600
2017-08-01T12:29:27.616Z,6500
2017-08-01T12:30:27.608Z,6236
2017-08-01T12:31:27.916Z,6056
2017-08-01T12:32:27.910Z,6380
2017-08-01T12:33:27.896Z,7316
2017-08-01T12:34:27.893Z,8092
2017-08-01T12:35:27.268Z,8196
2017-08-01T12:36:27.889Z,7788
2017-08-01T12:37:27.565Z,6936
2017-08-01T12:38:27.869Z,6168
2017-08-01T12:39:27.558Z,6028
2017-08-01T12:40:27.237Z,5584
2017-08-01T12:41:27.853Z,4684
2017-08-01T12:42:27.534Z,3624
2017-08-01T12:43:27.839Z,2996
2017-08-01T12:44:27.519Z,2724
2017-08-01T12:45:27.831Z,2180
2017-08-01T12:46:27.818Z,1972
2017-08-01T12:47:27.898Z,2084
2017-08-01T12:48:28.125Z,2440
2017-08-01T12:49:28.125Z,3044
2017-08-01T12:50:27.490Z,3672
2017-08-01T12:51:27.785Z,3784
2017-08-01T12:52:27.153Z,3764
2017-08-01T12:53:27.771Z,3960
2017-08-01T12:54:28.081Z,4164
2017-08-01T12:55:27.765Z,3960
2017-08-01T12:56:27.759Z,4000
2017-08-01T12:57:28.082Z,4320
2017-08-01T12:58:27.112Z,4496
2017-08-01T12:59:27.410Z,4420
2017-08-01T13:00:28.047Z,4752
2017-08-01T13:01:27.714Z,4968
2017-08-01T13:02:27.707Z,5188
2017-08-01T13:03:27.387Z,6012
2017-08-01T13:04:27.696Z,7208
2017-08-01T13:05:27.683Z,7616
2017-08-01T13:06:27.359Z,7404
2017-08-01T13:07:27.989Z,7024
2017-08-01T13:08:27.662Z,7452
2017-08-01T13:09:27.348Z,7784
2017-08-01T13:10:27.331Z,7764
2017-08-01T13:11:27.659Z,8212
2017-08-01T13:12:27.312Z,8128
2017-08-01T13:13:27.958Z,7092
2017-08-01T13:14:27.614Z,6848
2017-08-01T13:15:27.605Z,7176
2017-08-01T13:16:27.603Z,7324
2017-08-01T13:17:27.589Z,7056
2017-08-01T13:18:27.274Z,5980
2017-08-01T13:19:27.581Z,4628
2017-08-01T13:20:27.461Z,3848
2017-08-01T13:21:27.877Z,3936
2017-08-01T13:22:27.253Z,4420
2017-08-01T13:23:28.063Z,5224
2017-08-01T13:24:27.551Z,5744
2017-08-01T13:25:26.913Z,5804
2017-08-01T13:26:27.536Z,5808
2017-08-01T13:27:27.841Z,5836
2017-08-01T13:28:27.216Z,6092
2017-08-01T13:29:27.512Z,6232
2017-08-01T13:30:27.808Z,6488
2017-08-01T13:31:27.204Z,6932
2017-08-01T13:32:27.797Z,7328
2017-08-01T13:33:26.853Z,7020
2017-08-01T13:34:27.791Z,6676
2017-08-01T13:35:27.463Z,6420
2017-08-01T13:36:27.145Z,6472
2017-08-01T13:37:27.445Z,6908
2017-08-01T13:38:27.439Z,7940
2017-08-01T13:39:27.743Z,9020